sensor_id;sensor_type;location;lat;lon;timestamp;pressure;altitude;pressure_sealevel;temperature;humidity
70900;BME280;67902;52.154;5.430;2023-11-21T00:01:03;101189.25;;;6.03;100.00
70900;BME280;67902;52.154;5.430;2023-11-21T00:03:31;101178.31;;;5.98;100.00
70900;BME280;67902;52.154;5.430;2023-11-21T00:05:57;101188.19;;;6.04;100.00
70900;BME280;67902;52.154;5.430;2023-11-21T00:08:24;101186.56;;;6.03;100.00
70900;BME280;67902;52.154;5.430;2023-11-21T00:10:50;101193.38;;;5.99;100.00
70900;BME280;67902;52.154;5.430;2023-11-21T00:13:17;101190.69;;;6.05;100.00
70900;BME280;67902;52.154;5.430;2023-11-21T00:15:44;101197.53;;;6.08;100.00
70900;BME280;67902;52.154;5.430;2023-11-21T00:18:11;101196.91;;;6.19;100.00
70900;BME280;67902;52.154;5.430;2023-11-21T00:20:37;101201.88;;;6.22;100.00
70900;BME280;67902;52.154;5.430;2023-11-21T00:23:04;101200.63;;;6.31;100.00
70900;BME280;67902;52.154;5.430;2023-11-21T00:25:30;101192.13;;;6.21;100.00
70900;BME280;67902;52.154;5.430;2023-11-21T00:27:58;101201.25;;;6.20;100.00
70900;BME280;67902;52.154;5.430;2023-11-21T00:30:25;101209.31;;;6.20;100.00
70900;BME280;67902;52.154;5.430;2023-11-21T00:32:51;101213.66;;;6.14;100.00
70900;BME280;67902;52.154;5.430;2023-11-21T00:35:18;101206.84;;;6.12;100.00
70900;BME280;67902;52.154;5.430;2023-11-21T00:37:44;101202.69;;;6.09;100.00
70900;BME280;67902;52.154;5.430;2023-11-21T00:40:12;101203.13;;;6.06;100.00
70900;BME280;67902;52.154;5.430;2023-11-21T00:42:39;101211.38;;;6.05;100.00
70900;BME280;67902;52.154;5.430;2023-11-21T00:45:06;101208.06;;;6.03;100.00
70900;BME280;67902;52.154;5.430;2023-11-21T00:47:33;101210.94;;;6.01;100.00
70900;BME280;67902;52.154;5.430;2023-11-21T00:50:00;101215.50;;;6.01;100.00
70900;BME280;67902;52.154;5.430;2023-11-21T00:52:26;101214.25;;;5.97;100.00
70900;BME280;67902;52.154;5.430;2023-11-21T00:54:53;101216.94;;;5.97;100.00
70900;BME280;67902;52.154;5.430;2023-11-21T00:57:19;101216.13;;;5.96;100.00
70900;BME280;67902;52.154;5.430;2023-11-21T00:59:46;101217.34;;;5.94;100.00
70900;BME280;67902;52.154;5.430;2023-11-21T01:02:12;101214.47;;;5.89;100.00
70900;BME280;67902;52.154;5.430;2023-11-21T01:04:39;101236.56;;;5.91;100.00
70900;BME280;67902;52.154;5.430;2023-11-21T01:07:15;101240.28;;;5.90;100.00
70900;BME280;67902;52.154;5.430;2023-11-21T01:09:41;101235.34;;;6.00;100.00
70900;BME280;67902;52.154;5.430;2023-11-21T01:12:10;101237.84;;;6.08;100.00
70900;BME280;67902;52.154;5.430;2023-11-21T01:14:37;101240.53;;;6.21;100.00
70900;BME280;67902;52.154;5.430;2023-11-21T01:17:04;101247.38;;;6.30;100.00
70900;BME280;67902;52.154;5.430;2023-11-21T01:19:31;101245.53;;;6.37;100.00
70900;BME280;67902;52.154;5.430;2023-11-21T01:21:58;101243.47;;;6.39;100.00
70900;BME280;67902;52.154;5.430;2023-11-21T01:24:24;101239.31;;;6.43;100.00
70900;BME280;67902;52.154;5.430;2023-11-21T01:26:51;101242.00;;;6.43;100.00
70900;BME280;67902;52.154;5.430;2023-11-21T01:29:18;101234.16;;;6.41;100.00
70900;BME280;67902;52.154;5.430;2023-11-21T01:31:44;101240.78;;;6.39;100.00
70900;BME280;67902;52.154;5.430;2023-11-21T01:34:11;101239.72;;;6.40;100.00
70900;BME280;67902;52.154;5.430;2023-11-21T01:36:38;101243.03;;;6.42;100.00
70900;BME280;67902;52.154;5.430;2023-11-21T01:39:04;101244.28;;;6.46;100.00
70900;BME280;67902;52.154;5.430;2023-11-21T01:41:37;101243.44;;;6.52;100.00
70900;BME280;67902;52.154;5.430;2023-11-21T01:44:03;101248.22;;;6.57;100.00
70900;BME280;67902;52.154;5.430;2023-11-21T01:46:34;101247.59;;;6.61;100.00
70900;BME280;67902;52.154;5.430;2023-11-21T01:49:01;101256.88;;;6.65;100.00
70900;BME280;67902;52.154;5.430;2023-11-21T01:51:28;101255.25;;;6.71;100.00
70900;BME280;67902;52.154;5.430;2023-11-21T01:53:55;101251.91;;;6.75;100.00
70900;BME280;67902;52.154;5.430;2023-11-21T01:56:22;101261.66;;;6.76;100.00
70900;BME280;67902;52.154;5.430;2023-11-21T01:58:49;101258.97;;;6.76;100.00
70900;BME280;67902;52.154;5.430;2023-11-21T02:01:16;101260.59;;;6.77;100.00
70900;BME280;67902;52.154;5.430;2023-11-21T02:03:45;101269.75;;;6.76;100.00
70900;BME280;67902;52.154;5.430;2023-11-21T02:06:12;101266.81;;;6.78;100.00
70900;BME280;67902;52.154;5.430;2023-11-21T02:08:38;101276.94;;;6.82;100.00
70900;BME280;67902;52.154;5.430;2023-11-21T02:11:05;101281.50;;;6.88;100.00
70900;BME280;67902;52.154;5.430;2023-11-21T02:13:32;101284.19;;;6.95;100.00
70900;BME280;67902;52.154;5.430;2023-11-21T02:15:59;101287.50;;;6.97;100.00
70900;BME280;67902;52.154;5.430;2023-11-21T02:18:26;101291.03;;;6.97;100.00
70900;BME280;67902;52.154;5.430;2023-11-21T02:20:55;101289.13;;;7.05;100.00
70900;BME280;67902;52.154;5.430;2023-11-21T02:23:22;101291.22;;;7.09;100.00
70900;BME280;67902;52.154;5.430;2023-11-21T02:25:49;101286.25;;;7.13;100.00
70900;BME280;67902;52.154;5.430;2023-11-21T02:28:16;101293.25;;;7.14;100.00
70900;BME280;67902;52.154;5.430;2023-11-21T02:30:52;101285.38;;;7.19;100.00
70900;BME280;67902;52.154;5.430;2023-11-21T02:33:23;101291.78;;;7.24;100.00
70900;BME280;67902;52.154;5.430;2023-11-21T02:35:49;101299.03;;;7.30;100.00
70900;BME280;67902;52.154;5.430;2023-11-21T02:38:17;101296.75;;;7.34;100.00
70900;BME280;67902;52.154;5.430;2023-11-21T02:40:44;101298.19;;;7.36;100.00
70900;BME280;67902;52.154;5.430;2023-11-21T02:43:11;101302.75;;;7.36;100.00
70900;BME280;67902;52.154;5.430;2023-11-21T02:45:37;101303.38;;;7.38;100.00
70900;BME280;67902;52.154;5.430;2023-11-21T02:48:04;101297.75;;;7.39;100.00
70900;BME280;67902;52.154;5.430;2023-11-21T02:50:31;101299.63;;;7.39;100.00
70900;BME280;67902;52.154;5.430;2023-11-21T02:52:57;101304.41;;;7.37;100.00
70900;BME280;67902;52.154;5.430;2023-11-21T02:55:24;101302.13;;;7.40;100.00
70900;BME280;67902;52.154;5.430;2023-11-21T02:57:51;101301.06;;;7.41;100.00
70900;BME280;67902;52.154;5.430;2023-11-21T03:00:18;101297.13;;;7.44;100.00
70900;BME280;67902;52.154;5.430;2023-11-21T03:02:44;101296.69;;;7.47;100.00
70900;BME280;67902;52.154;5.430;2023-11-21T03:05:11;101300.03;;;7.49;100.00
70900;BME280;67902;52.154;5.430;2023-11-21T03:07:38;101296.91;;;7.52;100.00
70900;BME280;67902;52.154;5.430;2023-11-21T03:10:06;101300.22;;;7.54;100.00
70900;BME280;67902;52.154;5.430;2023-11-21T03:12:35;101300.81;;;7.56;100.00
70900;BME280;67902;52.154;5.430;2023-11-21T03:15:02;101293.56;;;7.56;100.00
70900;BME280;67902;52.154;5.430;2023-11-21T03:17:29;101297.09;;;7.57;100.00
70900;BME280;67902;52.154;5.430;2023-11-21T03:19:55;101290.63;;;7.58;100.00
70900;BME280;67902;52.154;5.430;2023-11-21T03:22:23;101301.41;;;7.58;100.00
70900;BME280;67902;52.154;5.430;2023-11-21T03:24:50;101296.50;;;7.55;100.00
70900;BME280;67902;52.154;5.430;2023-11-21T03:27:16;101294.81;;;7.54;100.00
70900;BME280;67902;52.154;5.430;2023-11-21T03:29:43;101289.84;;;7.51;100.00
70900;BME280;67902;52.154;5.430;2023-11-21T03:32:09;101291.53;;;7.45;100.00
70900;BME280;67902;52.154;5.430;2023-11-21T03:34:53;101304.00;;;7.40;100.00
70900;BME280;67902;52.154;5.430;2023-11-21T03:37:20;101307.31;;;7.35;100.00
70900;BME280;67902;52.154;5.430;2023-11-21T03:39:47;101308.34;;;7.34;100.00
70900;BME280;67902;52.154;5.430;2023-11-21T03:42:13;101318.47;;;7.39;100.00
70900;BME280;67902;52.154;5.430;2023-11-21T03:44:40;101309.38;;;7.40;100.00
70900;BME280;67902;52.154;5.430;2023-11-21T03:47:06;101315.97;;;7.44;100.00
70900;BME280;67902;52.154;5.430;2023-11-21T03:49:32;101311.84;;;7.48;100.00
70900;BME280;67902;52.154;5.430;2023-11-21T03:51:59;101317.63;;;7.51;100.00
70900;BME280;67902;52.154;5.430;2023-11-21T03:54:25;101323.44;;;7.55;100.00
70900;BME280;67902;52.154;5.430;2023-11-21T03:56:52;101333.75;;;7.58;100.00
70900;BME280;67902;52.154;5.430;2023-11-21T03:59:18;101333.34;;;7.61;100.00
70900;BME280;67902;52.154;5.430;2023-11-21T04:01:45;101331.28;;;7.63;100.00
70900;BME280;67902;52.154;5.430;2023-11-21T04:04:12;101339.97;;;7.65;100.00
70900;BME280;67902;52.154;5.430;2023-11-21T04:06:38;101333.31;;;7.68;100.00
70900;BME280;67902;52.154;5.430;2023-11-21T04:09:05;101342.84;;;7.70;100.00
70900;BME280;67902;52.154;5.430;2023-11-21T04:11:31;101341.41;;;7.74;100.00
70900;BME280;67902;52.154;5.430;2023-11-21T04:13:58;101351.34;;;7.80;100.00
70900;BME280;67902;52.154;5.430;2023-11-21T04:16:24;101347.81;;;7.80;100.00
70900;BME280;67902;52.154;5.430;2023-11-21T04:18:51;101361.06;;;7.81;100.00
70900;BME280;67902;52.154;5.430;2023-11-21T04:21:18;101357.34;;;7.82;100.00
70900;BME280;67902;52.154;5.430;2023-11-21T04:23:44;101351.94;;;7.82;100.00
70900;BME280;67902;52.154;5.430;2023-11-21T04:26:10;101367.06;;;7.83;100.00
70900;BME280;67902;52.154;5.430;2023-11-21T04:28:37;101360.63;;;7.84;100.00
70900;BME280;67902;52.154;5.430;2023-11-21T04:31:04;101365.81;;;7.86;100.00
70900;BME280;67902;52.154;5.430;2023-11-21T04:33:30;101364.78;;;7.87;100.00
70900;BME280;67902;52.154;5.430;2023-11-21T04:35:57;101378.22;;;7.93;100.00
70900;BME280;67902;52.154;5.430;2023-11-21T04:38:24;101380.94;;;7.93;100.00
70900;BME280;67902;52.154;5.430;2023-11-21T04:40:50;101384.66;;;7.92;100.00
70900;BME280;67902;52.154;5.430;2023-11-21T04:43:17;101386.94;;;7.95;100.00
70900;BME280;67902;52.154;5.430;2023-11-21T04:45:43;101393.13;;;8.02;100.00
70900;BME280;67902;52.154;5.430;2023-11-21T04:48:10;101392.31;;;7.95;100.00
70900;BME280;67902;52.154;5.430;2023-11-21T04:50:37;101384.84;;;7.97;100.00
70900;BME280;67902;52.154;5.430;2023-11-21T04:53:03;101389.63;;;7.95;100.00
70900;BME280;67902;52.154;5.430;2023-11-21T04:55:30;101386.31;;;7.93;100.00
70900;BME280;67902;52.154;5.430;2023-11-21T04:57:56;101392.13;;;7.97;100.00
70900;BME280;67902;52.154;5.430;2023-11-21T05:00:23;101385.47;;;7.99;100.00
70900;BME280;67902;52.154;5.430;2023-11-21T05:02:50;101393.94;;;8.03;100.00
70900;BME280;67902;52.154;5.430;2023-11-21T05:05:17;101391.66;;;8.06;100.00
70900;BME280;67902;52.154;5.430;2023-11-21T05:07:44;101395.78;;;8.09;100.00
70900;BME280;67902;52.154;5.430;2023-11-21T05:10:10;101396.19;;;8.12;100.00
70900;BME280;67902;52.154;5.430;2023-11-21T05:12:40;101410.28;;;8.14;100.00
70900;BME280;67902;52.154;5.430;2023-11-21T05:15:07;101401.78;;;8.17;100.00
70900;BME280;67902;52.154;5.430;2023-11-21T05:17:39;101406.97;;;8.19;100.00
70900;BME280;67902;52.154;5.430;2023-11-21T05:20:11;101414.41;;;8.24;100.00
70900;BME280;67902;52.154;5.430;2023-11-21T05:22:39;101413.38;;;8.25;100.00
70900;BME280;67902;52.154;5.430;2023-11-21T05:25:06;101420.00;;;8.29;100.00
70900;BME280;67902;52.154;5.430;2023-11-21T05:27:35;101417.13;;;8.30;100.00
70900;BME280;67902;52.154;5.430;2023-11-21T05:30:03;101415.25;;;8.31;100.00
70900;BME280;67902;52.154;5.430;2023-11-21T05:32:33;101418.56;;;8.33;100.00
70900;BME280;67902;52.154;5.430;2023-11-21T05:35:01;101426.22;;;8.36;100.00
70900;BME280;67902;52.154;5.430;2023-11-21T05:37:27;101425.16;;;8.37;100.00
70900;BME280;67902;52.154;5.430;2023-11-21T05:39:54;101432.03;;;8.39;100.00
70900;BME280;67902;52.154;5.430;2023-11-21T05:42:23;101430.75;;;8.42;100.00
70900;BME280;67902;52.154;5.430;2023-11-21T05:44:50;101435.94;;;8.43;100.00
70900;BME280;67902;52.154;5.430;2023-11-21T05:47:16;101439.22;;;8.45;100.00
70900;BME280;67902;52.154;5.430;2023-11-21T05:49:43;101441.72;;;8.47;100.00
70900;BME280;67902;52.154;5.430;2023-11-21T05:52:11;101433.63;;;8.47;100.00
70900;BME280;67902;52.154;5.430;2023-11-21T05:54:37;101442.34;;;8.49;100.00
70900;BME280;67902;52.154;5.430;2023-11-21T05:57:04;101444.84;;;8.50;100.00
70900;BME280;67902;52.154;5.430;2023-11-21T05:59:30;101449.41;;;8.50;100.00
70900;BME280;67902;52.154;5.430;2023-11-21T06:01:57;101451.03;;;8.51;100.00
70900;BME280;67902;52.154;5.430;2023-11-21T06:04:24;101458.94;;;8.52;100.00
70900;BME280;67902;52.154;5.430;2023-11-21T06:06:52;101456.84;;;8.54;100.00
70900;BME280;67902;52.154;5.430;2023-11-21T06:09:19;101462.84;;;8.56;100.00
70900;BME280;67902;52.154;5.430;2023-11-21T06:11:47;101464.50;;;8.57;100.00
70900;BME280;67902;52.154;5.430;2023-11-21T06:14:14;101468.66;;;8.60;100.00
70900;BME280;67902;52.154;5.430;2023-11-21T06:16:44;101464.91;;;8.61;100.00
70900;BME280;67902;52.154;5.430;2023-11-21T06:19:11;101472.78;;;8.62;100.00
70900;BME280;67902;52.154;5.430;2023-11-21T06:21:39;101469.06;;;8.63;100.00
70900;BME280;67902;52.154;5.430;2023-11-21T06:24:05;101482.31;;;8.65;100.00
70900;BME280;67902;52.154;5.430;2023-11-21T06:26:32;101483.97;;;8.66;100.00
70900;BME280;67902;52.154;5.430;2023-11-21T06:28:58;101490.22;;;8.66;100.00
70900;BME280;67902;52.154;5.430;2023-11-21T06:31:26;101481.88;;;8.68;100.00
70900;BME280;67902;52.154;5.430;2023-11-21T06:33:52;101490.63;;;8.70;100.00
70900;BME280;67902;52.154;5.430;2023-11-21T06:36:19;101488.53;;;8.72;100.00
70900;BME280;67902;52.154;5.430;2023-11-21T06:38:45;101487.25;;;8.74;100.00
70900;BME280;67902;52.154;5.430;2023-11-21T06:41:12;101498.66;;;8.77;100.00
70900;BME280;67902;52.154;5.430;2023-11-21T06:43:41;101489.72;;;8.76;100.00
70900;BME280;67902;52.154;5.430;2023-11-21T06:46:13;101500.09;;;8.79;100.00
70900;BME280;67902;52.154;5.430;2023-11-21T06:48:43;101500.94;;;8.80;100.00
70900;BME280;67902;52.154;5.430;2023-11-21T06:51:18;101507.19;;;8.80;100.00
70900;BME280;67902;52.154;5.430;2023-11-21T06:53:48;101498.03;;;8.81;100.00
70900;BME280;67902;52.154;5.430;2023-11-21T06:56:18;101504.25;;;8.82;100.00
70900;BME280;67902;52.154;5.430;2023-11-21T06:58:45;101514.84;;;8.83;100.00
70900;BME280;67902;52.154;5.430;2023-11-21T07:01:13;101517.13;;;8.86;100.00
70900;BME280;67902;52.154;5.430;2023-11-21T07:03:40;101524.16;;;8.87;100.00
70900;BME280;67902;52.154;5.430;2023-11-21T07:06:08;101524.78;;;8.89;100.00
70900;BME280;67902;52.154;5.430;2023-11-21T07:08:34;101527.50;;;8.89;100.00
70900;BME280;67902;52.154;5.430;2023-11-21T07:11:01;101530.78;;;8.91;100.00
70900;BME280;67902;52.154;5.430;2023-11-21T07:13:30;101534.09;;;8.93;100.00
70900;BME280;67902;52.154;5.430;2023-11-21T07:15:58;101543.63;;;8.96;100.00
70900;BME280;67902;52.154;5.430;2023-11-21T07:18:25;101547.78;;;8.98;100.00
70900;BME280;67902;52.154;5.430;2023-11-21T07:20:52;101551.13;;;9.00;100.00
70900;BME280;67902;52.154;5.430;2023-11-21T07:23:18;101552.75;;;9.01;100.00
70900;BME280;67902;52.154;5.430;2023-11-21T07:25:45;101562.31;;;9.04;100.00
70900;BME280;67902;52.154;5.430;2023-11-21T07:28:11;101570.19;;;9.05;100.00
70900;BME280;67902;52.154;5.430;2023-11-21T07:30:39;101568.09;;;9.07;100.00
70900;BME280;67902;52.154;5.430;2023-11-21T07:33:06;101567.66;;;9.10;100.00
70900;BME280;67902;52.154;5.430;2023-11-21T07:35:33;101564.78;;;9.12;100.00
70900;BME280;67902;52.154;5.430;2023-11-21T07:38:00;101560.16;;;9.12;100.00
70900;BME280;67902;52.154;5.430;2023-11-21T07:40:27;101566.19;;;9.14;100.00
70900;BME280;67902;52.154;5.430;2023-11-21T07:42:57;101571.19;;;9.17;100.00
70900;BME280;67902;52.154;5.430;2023-11-21T07:45:23;101574.25;;;9.21;100.00
70900;BME280;67902;52.154;5.430;2023-11-21T07:47:50;101578.63;;;9.22;100.00
70900;BME280;67902;52.154;5.430;2023-11-21T07:50:16;101587.97;;;9.26;100.00
70900;BME280;67902;52.154;5.430;2023-11-21T07:52:43;101589.41;;;9.28;100.00
70900;BME280;67902;52.154;5.430;2023-11-21T07:55:10;101596.44;;;9.29;100.00
70900;BME280;67902;52.154;5.430;2023-11-21T07:57:37;101595.59;;;9.36;100.00
70900;BME280;67902;52.154;5.430;2023-11-21T08:00:05;101599.53;;;9.40;100.00
70900;BME280;67902;52.154;5.430;2023-11-21T08:02:35;101596.97;;;9.45;100.00
70900;BME280;67902;52.154;5.430;2023-11-21T08:05:02;101613.97;;;9.52;100.00
70900;BME280;67902;52.154;5.430;2023-11-21T08:07:28;101615.19;;;9.62;100.00
70900;BME280;67902;52.154;5.430;2023-11-21T08:09:55;101620.50;;;9.69;100.00
70900;BME280;67902;52.154;5.430;2023-11-21T08:12:22;101621.94;;;9.71;100.00
70900;BME280;67902;52.154;5.430;2023-11-21T08:14:50;101630.91;;;9.72;100.00
70900;BME280;67902;52.154;5.430;2023-11-21T08:17:16;101628.34;;;9.77;100.00
70900;BME280;67902;52.154;5.430;2023-11-21T08:19:44;101639.53;;;9.87;100.00
70900;BME280;67902;52.154;5.430;2023-11-21T08:22:11;101645.09;;;9.92;100.00
70900;BME280;67902;52.154;5.430;2023-11-21T08:24:37;101653.03;;;9.94;100.00
70900;BME280;67902;52.154;5.430;2023-11-21T08:27:04;101659.03;;;9.96;100.00
70900;BME280;67902;52.154;5.430;2023-11-21T08:29:31;101661.34;;;9.92;100.00
70900;BME280;67902;52.154;5.430;2023-11-21T08:31:57;101665.31;;;9.89;100.00
70900;BME280;67902;52.154;5.430;2023-11-21T08:34:24;101664.91;;;9.86;100.00
70900;BME280;67902;52.154;5.430;2023-11-21T08:36:51;101673.28;;;9.84;100.00
70900;BME280;67902;52.154;5.430;2023-11-21T08:39:17;101683.25;;;9.84;100.00
70900;BME280;67902;52.154;5.430;2023-11-21T08:41:45;101691.13;;;9.85;100.00
70900;BME280;67902;52.154;5.430;2023-11-21T08:44:12;101685.91;;;9.90;100.00
70900;BME280;67902;52.154;5.430;2023-11-21T08:46:38;101694.19;;;9.96;100.00
70900;BME280;67902;52.154;5.430;2023-11-21T08:49:06;101693.78;;;9.99;100.00
70900;BME280;67902;52.154;5.430;2023-11-21T08:51:32;101700.63;;;10.01;100.00
70900;BME280;67902;52.154;5.430;2023-11-21T08:54:27;101694.38;;;10.01;100.00
70900;BME280;67902;52.154;5.430;2023-11-21T08:56:57;101692.25;;;10.03;100.00
70900;BME280;67902;52.154;5.430;2023-11-21T08:59:27;101688.47;;;10.10;100.00
70900;BME280;67902;52.154;5.430;2023-11-21T09:01:53;101700.06;;;10.24;100.00
70900;BME280;67902;52.154;5.430;2023-11-21T09:04:20;101698.53;;;10.53;100.00
70900;BME280;67902;52.154;5.430;2023-11-21T09:06:46;101710.78;;;10.80;100.00
70900;BME280;67902;52.154;5.430;2023-11-21T09:09:13;101725.75;;;11.00;100.00
70900;BME280;67902;52.154;5.430;2023-11-21T09:11:40;101726.44;;;10.96;100.00
70900;BME280;67902;52.154;5.430;2023-11-21T09:14:06;101731.19;;;10.82;100.00
70900;BME280;67902;52.154;5.430;2023-11-21T09:16:33;101739.66;;;10.68;100.00
70900;BME280;67902;52.154;5.430;2023-11-21T09:19:00;101744.56;;;10.53;100.00
70900;BME280;67902;52.154;5.430;2023-11-21T09:21:28;101739.06;;;10.41;100.00
70900;BME280;67902;52.154;5.430;2023-11-21T09:23:55;101740.78;;;10.35;100.00
70900;BME280;67902;52.154;5.430;2023-11-21T09:26:21;101751.63;;;10.35;100.00
70900;BME280;67902;52.154;5.430;2023-11-21T09:28:47;101749.53;;;10.31;100.00
70900;BME280;67902;52.154;5.430;2023-11-21T09:31:14;101760.59;;;10.29;100.00
70900;BME280;67902;52.154;5.430;2023-11-21T09:33:44;101754.56;;;10.27;100.00
70900;BME280;67902;52.154;5.430;2023-11-21T09:36:12;101765.84;;;10.24;100.00
70900;BME280;67902;52.154;5.430;2023-11-21T09:38:40;101780.25;;;10.18;100.00
70900;BME280;67902;52.154;5.430;2023-11-21T09:41:23;101789.22;;;10.12;100.00
70900;BME280;67902;52.154;5.430;2023-11-21T09:43:54;101793.19;;;10.10;100.00
70900;BME280;67902;52.154;5.430;2023-11-21T09:46:23;101790.50;;;10.03;100.00
70900;BME280;67902;52.154;5.430;2023-11-21T09:48:51;101805.53;;;9.99;100.00
70900;BME280;67902;52.154;5.430;2023-11-21T09:51:25;101793.66;;;10.00;100.00
70900;BME280;67902;52.154;5.430;2023-11-21T09:53:53;101801.34;;;10.03;100.00
70900;BME280;67902;52.154;5.430;2023-11-21T09:56:20;101807.97;;;10.07;100.00
70900;BME280;67902;52.154;5.430;2023-11-21T09:58:52;101810.06;;;10.05;100.00
70900;BME280;67902;52.154;5.430;2023-11-21T10:01:20;101810.50;;;10.02;100.00
70900;BME280;67902;52.154;5.430;2023-11-21T10:03:47;101815.72;;;9.97;100.00
70900;BME280;67902;52.154;5.430;2023-11-21T10:06:15;101818.25;;;9.92;100.00
70900;BME280;67902;52.154;5.430;2023-11-21T10:08:43;101816.41;;;9.86;100.00
70900;BME280;67902;52.154;5.430;2023-11-21T10:11:23;101818.91;;;9.87;100.00
70900;BME280;67902;52.154;5.430;2023-11-21T10:13:54;101818.06;;;9.87;100.00
70900;BME280;67902;52.154;5.430;2023-11-21T10:16:22;101833.69;;;9.85;100.00
70900;BME280;67902;52.154;5.430;2023-11-21T10:18:52;101837.19;;;9.92;100.00
70900;BME280;67902;52.154;5.430;2023-11-21T10:21:29;101843.78;;;10.09;100.00
70900;BME280;67902;52.154;5.430;2023-11-21T10:23:56;101848.69;;;10.25;100.00
70900;BME280;67902;52.154;5.430;2023-11-21T10:26:28;101855.94;;;10.38;100.00
70900;BME280;67902;52.154;5.430;2023-11-21T10:28:58;101859.00;;;10.41;100.00
70900;BME280;67902;52.154;5.430;2023-11-21T10:31:29;101856.13;;;10.36;100.00
70900;BME280;67902;52.154;5.430;2023-11-21T10:34:16;101858.75;;;10.18;100.00
70900;BME280;67902;52.154;5.430;2023-11-21T10:36:43;101870.44;;;10.06;100.00
70900;BME280;67902;52.154;5.430;2023-11-21T10:39:14;101872.97;;;9.94;100.00
70900;BME280;67902;52.154;5.430;2023-11-21T10:41:44;101880.91;;;9.89;100.00
70900;BME280;67902;52.154;5.430;2023-11-21T10:44:18;101892.16;;;9.86;100.00
70900;BME280;67902;52.154;5.430;2023-11-21T10:46:51;101890.53;;;9.78;100.00
70900;BME280;67902;52.154;5.430;2023-11-21T10:49:24;101896.13;;;9.77;100.00
70900;BME280;67902;52.154;5.430;2023-11-21T10:51:52;101902.38;;;9.77;100.00
70900;BME280;67902;52.154;5.430;2023-11-21T10:54:20;101906.75;;;9.78;100.00
70900;BME280;67902;52.154;5.430;2023-11-21T10:56:53;101915.91;;;9.77;100.00
70900;BME280;67902;52.154;5.430;2023-11-21T10:59:22;101915.06;;;9.77;100.00
70900;BME280;67902;52.154;5.430;2023-11-21T11:01:51;101920.03;;;9.80;100.00
70900;BME280;67902;52.154;5.430;2023-11-21T11:04:19;101921.91;;;9.86;100.00
70900;BME280;67902;52.154;5.430;2023-11-21T11:06:51;101916.25;;;9.94;100.00
70900;BME280;67902;52.154;5.430;2023-11-21T11:09:20;101921.03;;;9.99;100.00
70900;BME280;67902;52.154;5.430;2023-11-21T11:11:47;101922.06;;;10.04;100.00
70900;BME280;67902;52.154;5.430;2023-11-21T11:14:15;101922.91;;;10.05;100.00
70900;BME280;67902;52.154;5.430;2023-11-21T11:16:43;101917.09;;;10.01;100.00
70900;BME280;67902;52.154;5.430;2023-11-21T11:19:10;101915.63;;;9.99;100.00
70900;BME280;67902;52.154;5.430;2023-11-21T11:22:08;101926.84;;;10.02;100.00
70900;BME280;67902;52.154;5.430;2023-11-21T11:24:58;101929.53;;;10.02;100.00
70900;BME280;67902;52.154;5.430;2023-11-21T11:27:39;101926.84;;;10.02;100.00
70900;BME280;67902;52.154;5.430;2023-11-21T11:33:30;101932.03;;;10.10;100.00
70900;BME280;67902;52.154;5.430;2023-11-21T11:36:18;101931.59;;;10.26;100.00
70900;BME280;67902;52.154;5.430;2023-11-21T11:38:48;101935.72;;;10.35;100.00
70900;BME280;67902;52.154;5.430;2023-11-21T11:41:26;101942.16;;;10.34;100.00
70900;BME280;67902;52.154;5.430;2023-11-21T11:43:54;101939.47;;;10.34;100.00
70900;BME280;67902;52.154;5.430;2023-11-21T11:46:40;101944.00;;;10.40;100.00
70900;BME280;67902;52.154;5.430;2023-11-21T11:49:08;101943.59;;;10.37;100.00
70900;BME280;67902;52.154;5.430;2023-11-21T11:51:34;101943.59;;;10.37;100.00
70900;BME280;67902;52.154;5.430;2023-11-21T11:54:05;101949.00;;;10.43;100.00
70900;BME280;67902;52.154;5.430;2023-11-21T11:56:34;101955.28;;;10.37;100.00
70900;BME280;67902;52.154;5.430;2023-11-21T11:59:03;101954.88;;;10.34;100.00
70900;BME280;67902;52.154;5.430;2023-11-21T12:01:32;101963.66;;;10.23;100.00
70900;BME280;67902;52.154;5.430;2023-11-21T12:06:41;101977.66;;;10.13;100.00
70900;BME280;67902;52.154;5.430;2023-11-21T12:09:18;101976.81;;;10.13;100.00
70900;BME280;67902;52.154;5.430;2023-11-21T12:11:46;101976.59;;;10.14;100.00
70900;BME280;67902;52.154;5.430;2023-11-21T12:14:13;101983.69;;;10.15;100.00
70900;BME280;67902;52.154;5.430;2023-11-21T12:16:40;101979.09;;;10.09;100.00
70900;BME280;67902;52.154;5.430;2023-11-21T12:19:06;101977.63;;;10.07;100.00
70900;BME280;67902;52.154;5.430;2023-11-21T12:21:33;101980.97;;;10.02;100.00
70900;BME280;67902;52.154;5.430;2023-11-21T12:24:00;101983.66;;;10.02;100.00
70900;BME280;67902;52.154;5.430;2023-11-21T12:26:26;101979.50;;;10.06;100.00
70900;BME280;67902;52.154;5.430;2023-11-21T12:28:54;101988.03;;;10.10;100.00
70900;BME280;67902;52.154;5.430;2023-11-21T12:31:23;101992.19;;;10.06;100.00
70900;BME280;67902;52.154;5.430;2023-11-21T12:33:50;101990.31;;;10.06;100.00
70900;BME280;67902;52.154;5.430;2023-11-21T12:36:17;101991.78;;;10.02;100.00
70900;BME280;67902;52.154;5.430;2023-11-21T12:38:43;101988.28;;;10.02;100.00
70900;BME280;67902;52.154;5.430;2023-11-21T12:41:10;101992.44;;;10.04;100.00
70900;BME280;67902;52.154;5.430;2023-11-21T12:43:37;101997.41;;;10.01;100.00
70900;BME280;67902;52.154;5.430;2023-11-21T12:46:09;102001.81;;;10.02;100.00
70900;BME280;67902;52.154;5.430;2023-11-21T12:48:41;102009.28;;;10.00;100.00
70900;BME280;67902;52.154;5.430;2023-11-21T12:51:11;102009.09;;;10.01;100.00
70900;BME280;67902;52.154;5.430;2023-11-21T12:53:38;102015.94;;;10.04;100.00
70900;BME280;67902;52.154;5.430;2023-11-21T12:56:11;102014.69;;;10.00;100.00
70900;BME280;67902;52.154;5.430;2023-11-21T12:58:39;102009.09;;;10.01;100.00